Time;durP1;ratioP1;P1;durP2;ratioP2;P2;SDS_P1;SDS_P2;PMS_P1;PMS_P2;Temp;Humidity;BMP_temperature;BMP_pressure;BME280_temperature;BME280_humidity;BME280_pressure;Samples;Min_cycle;Max_cycle;Signal;HPM_P1;HPM_P2
2021/10/05 00:00:36;;;;;;;4.32;3.92;;;;;;;;;;5030662;28;20293;-46
2021/10/05 00:03:02;;;;;;;5.15;4.60;;;;;;;;;;5017926;28;20188;-46
2021/10/05 00:05:28;;;;;;;4.97;4.47;;;;;;;;;;5030458;28;20187;-46
2021/10/05 00:07:54;;;;;;;4.85;4.05;;;;;;;;;;5018795;28;20212;-46
2021/10/05 00:10:20;;;;;;;4.82;4.38;;;;;;;;;;5015983;28;20260;-46
2021/10/05 00:12:46;;;;;;;5.15;4.70;;;;;;;;;;5015677;28;20180;-46
2021/10/05 00:15:12;;;;;;;5.15;4.65;;;;;;;;;;5015609;28;20189;-46
2021/10/05 00:17:38;;;;;;;4.72;4.28;;;;;;;;;;5023531;28;20238;-46
2021/10/05 00:20:05;;;;;;;6.18;4.72;;;;;;;;;;5016789;28;20238;-46
2021/10/05 00:22:32;;;;;;;5.60;4.60;;;;;;;;;;5027120;28;20282;-46
2021/10/05 00:24:57;;;;;;;5.30;4.75;;;;;;;;;;5033244;28;20180;-46
2021/10/05 00:27:23;;;;;;;5.30;4.80;;;;;;;;;;5035389;28;20543;-46
2021/10/05 00:29:49;;;;;;;4.90;4.40;;;;;;;;;;5018560;28;20225;-46
2021/10/05 00:32:15;;;;;;;5.00;4.28;;;;;;;;;;5015254;28;20168;-46
2021/10/05 00:34:41;;;;;;;5.53;5.03;;;;;;;;;;5016416;28;20180;-46
2021/10/05 00:37:07;;;;;;;6.10;5.10;;;;;;;;;;5016480;28;20177;-46
2021/10/05 00:39:33;;;;;;;5.18;4.38;;;;;;;;;;5015860;28;20184;-46
2021/10/05 00:41:59;;;;;;;5.07;4.57;;;;;;;;;;5024784;28;20192;-46
2021/10/05 00:44:29;;;;;;;6.65;4.60;;;;;;;;;;5034231;28;20654;-46
2021/10/05 00:46:59;;;;;;;5.70;5.20;;;;;;;;;;5035079;28;20461;-46
2021/10/05 00:49:25;;;;;;;4.78;4.30;;;;;;;;;;5019081;28;20208;-46
2021/10/05 00:51:51;;;;;;;5.40;4.40;;;;;;;;;;5018399;28;20218;-46
2021/10/05 00:54:17;;;;;;;5.57;5.00;;;;;;;;;;5020736;28;20172;-46
2021/10/05 00:56:42;;;;;;;5.35;4.55;;;;;;;;;;5018637;28;20212;-46
2021/10/05 00:59:08;;;;;;;5.10;4.70;;;;;;;;;;5015947;28;20181;-46
2021/10/05 01:01:34;;;;;;;5.60;5.10;;;;;;;;;;5015285;28;20297;-46
2021/10/05 01:04:00;;;;;;;5.10;4.60;;;;;;;;;;5022534;28;20188;-46
2021/10/05 01:06:26;;;;;;;6.47;4.57;;;;;;;;;;5026770;28;20184;-46
2021/10/05 01:08:52;;;;;;;4.78;4.28;;;;;;;;;;5016199;28;20267;-46
2021/10/05 01:11:18;;;;;;;4.88;4.45;;;;;;;;;;5014722;28;20259;-46
2021/10/05 01:13:44;;;;;;;5.18;4.72;;;;;;;;;;5015651;28;20207;-46
2021/10/05 01:16:10;;;;;;;4.53;4.13;;;;;;;;;;5018645;28;20183;-46
2021/10/05 01:18:36;;;;;;;4.82;3.97;;;;;;;;;;5028064;28;20181;-46
2021/10/05 01:21:05;;;;;;;4.32;3.92;;;;;;;;;;5014652;28;20432;-46
2021/10/05 01:23:33;;;;;;;4.43;3.92;;;;;;;;;;5019028;28;20563;-46
2021/10/05 01:26:01;;;;;;;4.13;3.72;;;;;;;;;;5014496;28;20184;-46
2021/10/05 01:28:27;;;;;;;4.45;4.05;;;;;;;;;;5017816;28;20196;-46
2021/10/05 01:30:53;;;;;;;4.97;4.50;;;;;;;;;;5021664;28;20176;-47
2021/10/05 01:33:21;;;;;;;4.22;3.83;;;;;;;;;;5014226;28;20456;-46
2021/10/05 01:35:47;;;;;;;5.05;4.28;;;;;;;;;;5013891;28;20204;-46
2021/10/05 01:38:13;;;;;;;5.57;4.85;;;;;;;;;;5031896;28;20472;-46
2021/10/05 01:40:39;;;;;;;5.78;4.43;;;;;;;;;;5033058;28;20184;-46
2021/10/05 01:43:05;;;;;;;4.80;4.28;;;;;;;;;;5036847;28;20286;-46
2021/10/05 01:45:31;;;;;;;4.88;4.40;;;;;;;;;;5022535;28;20271;-46
2021/10/05 01:47:57;;;;;;;5.70;4.10;;;;;;;;;;5031599;28;20204;-46
2021/10/05 01:50:23;;;;;;;6.13;4.25;;;;;;;;;;5036125;28;20172;-46
2021/10/05 01:52:50;;;;;;;4.40;4.00;;;;;;;;;;5031259;28;20459;-46
2021/10/05 01:55:16;;;;;;;4.20;3.80;;;;;;;;;;5035999;28;20267;-46
2021/10/05 01:57:42;;;;;;;4.50;3.92;;;;;;;;;;5038188;28;20171;-46
2021/10/05 02:00:08;;;;;;;4.50;4.10;;;;;;;;;;5029099;28;20271;-46
2021/10/05 02:02:35;;;;;;;4.15;3.72;;;;;;;;;;5024810;28;20258;-47
2021/10/05 02:05:01;;;;;;;4.20;3.80;;;;;;;;;;5031776;28;20226;-47
2021/10/05 02:07:27;;;;;;;4.20;3.78;;;;;;;;;;5035885;28;20713;-47
2021/10/05 02:09:53;;;;;;;4.18;3.78;;;;;;;;;;5019086;28;20268;-46
2021/10/05 02:12:19;;;;;;;3.95;3.65;;;;;;;;;;5018022;28;20544;-46
2021/10/05 02:14:46;;;;;;;5.43;3.78;;;;;;;;;;5017524;28;20176;-46
2021/10/05 02:17:13;;;;;;;4.03;3.63;;;;;;;;;;5018184;28;20211;-46
2021/10/05 02:19:39;;;;;;;4.50;4.10;;;;;;;;;;5036900;28;20172;-46
2021/10/05 02:22:05;;;;;;;3.85;3.50;;;;;;;;;;5032313;28;20180;-46
2021/10/05 02:24:45;;;;;;;3.97;3.65;;;;;;;;;;5017294;28;20283;-46
2021/10/05 02:27:14;;;;;;;4.00;3.65;;;;;;;;;;5019810;28;20169;-46
2021/10/05 02:29:41;;;;;;;4.45;3.80;;;;;;;;;;5022735;28;20180;-46
2021/10/05 02:32:08;;;;;;;4.25;3.85;;;;;;;;;;5017879;28;20176;-46
2021/10/05 02:34:35;;;;;;;3.92;3.45;;;;;;;;;;5028004;28;20213;-46
2021/10/05 02:37:01;;;;;;;3.95;3.47;;;;;;;;;;5017979;28;20186;-46
2021/10/05 02:39:27;;;;;;;3.92;3.53;;;;;;;;;;5029963;28;20413;-46
2021/10/05 02:41:53;;;;;;;3.97;3.60;;;;;;;;;;5017398;28;20180;-46
2021/10/05 02:44:19;;;;;;;4.30;3.90;;;;;;;;;;5020771;28;20285;-46
2021/10/05 02:46:46;;;;;;;3.60;3.30;;;;;;;;;;5022976;28;20183;-46
2021/10/05 02:49:13;;;;;;;4.53;4.03;;;;;;;;;;5035345;28;20467;-46
2021/10/05 02:51:39;;;;;;;4.00;3.60;;;;;;;;;;5024046;28;20257;-46
2021/10/05 02:54:05;;;;;;;3.63;3.15;;;;;;;;;;5030526;28;20514;-46
2021/10/05 02:56:31;;;;;;;4.43;3.30;;;;;;;;;;5027215;28;20186;-46
2021/10/05 02:58:57;;;;;;;3.45;3.17;;;;;;;;;;5033809;28;20230;-46
2021/10/05 03:01:23;;;;;;;3.70;3.40;;;;;;;;;;5017895;28;20247;-46
2021/10/05 03:03:49;;;;;;;4.80;3.80;;;;;;;;;;5024253;28;20574;-46
2021/10/05 03:06:16;;;;;;;3.60;3.30;;;;;;;;;;5032340;28;20184;-46
2021/10/05 03:08:42;;;;;;;4.90;3.40;;;;;;;;;;5035043;28;20210;-47
2021/10/05 03:11:10;;;;;;;3.75;3.40;;;;;;;;;;5035303;28;20183;-46
2021/10/05 03:13:36;;;;;;;4.97;3.45;;;;;;;;;;5036044;28;20176;-46
2021/10/05 03:16:03;;;;;;;3.58;3.28;;;;;;;;;;5035793;28;20190;-46
2021/10/05 03:18:29;;;;;;;3.42;3.13;;;;;;;;;;5017148;28;20184;-46
2021/10/05 03:20:56;;;;;;;5.72;3.55;;;;;;;;;;5029685;28;20267;-46
2021/10/05 03:23:22;;;;;;;4.72;3.33;;;;;;;;;;5017566;28;20588;-46
2021/10/05 03:25:48;;;;;;;3.50;3.20;;;;;;;;;;5019040;28;20184;-46
2021/10/05 03:28:15;;;;;;;3.72;3.17;;;;;;;;;;5035479;28;20308;-46
2021/10/05 03:30:41;;;;;;;4.97;3.35;;;;;;;;;;5023875;28;20207;-46
2021/10/05 03:33:07;;;;;;;3.97;2.90;;;;;;;;;;5021045;28;20172;-46
2021/10/05 03:35:33;;;;;;;3.63;3.33;;;;;;;;;;5016390;28;20231;-46
2021/10/05 03:37:59;;;;;;;3.47;3.17;;;;;;;;;;5016297;28;20169;-46
2021/10/05 03:40:25;;;;;;;3.45;2.97;;;;;;;;;;5033323;28;20195;-46
2021/10/05 03:42:51;;;;;;;4.53;3.28;;;;;;;;;;5035581;28;20213;-46
2021/10/05 03:45:17;;;;;;;4.63;2.80;;;;;;;;;;5035028;28;20220;-47
2021/10/05 03:47:43;;;;;;;3.10;2.80;;;;;;;;;;5032521;28;20267;-45
2021/10/05 03:50:10;;;;;;;6.95;3.28;;;;;;;;;;5016300;28;20165;-46
2021/10/05 03:52:37;;;;;;;3.92;3.10;;;;;;;;;;5023741;28;20187;-46
2021/10/05 03:55:04;;;;;;;3.78;3.33;;;;;;;;;;5031853;28;20176;-47
2021/10/05 03:57:30;;;;;;;3.78;3.08;;;;;;;;;;5027598;28;20677;-46
2021/10/05 03:59:56;;;;;;;3.40;3.10;;;;;;;;;;5031929;28;20187;-46
2021/10/05 04:02:22;;;;;;;3.85;3.30;;;;;;;;;;5030316;28;20330;-46
2021/10/05 04:04:48;;;;;;;4.38;3.33;;;;;;;;;;5030170;28;20198;-46
2021/10/05 04:07:14;;;;;;;6.88;2.85;;;;;;;;;;5015846;28;20172;-46
2021/10/05 04:09:40;;;;;;;3.58;3.20;;;;;;;;;;5015590;28;20189;-46
2021/10/05 04:12:08;;;;;;;3.22;2.88;;;;;;;;;;5023797;28;20242;-46
2021/10/05 04:14:34;;;;;;;4.88;2.83;;;;;;;;;;5034686;28;20198;-46
2021/10/05 04:17:00;;;;;;;4.47;3.13;;;;;;;;;;5035727;28;20164;-46
2021/10/05 04:19:26;;;;;;;3.88;2.92;;;;;;;;;;5035291;28;20191;-47
2021/10/05 04:21:51;;;;;;;13.75;4.38;;;;;;;;;;5019407;28;20203;-46
2021/10/05 04:24:18;;;;;;;12.52;4.78;;;;;;;;;;5019954;28;20199;-46
2021/10/05 04:26:44;;;;;;;17.75;4.72;;;;;;;;;;5020185;28;20190;-46
2021/10/05 04:29:09;;;;;;;16.00;4.85;;;;;;;;;;5016599;28;20204;-46
2021/10/05 04:31:41;;;;;;;7.97;4.35;;;;;;;;;;5033826;28;20190;-46
2021/10/05 04:34:07;;;;;;;8.27;3.63;;;;;;;;;;5034140;28;20218;-46
2021/10/05 04:36:33;;;;;;;10.25;4.30;;;;;;;;;;5034828;28;20287;-46
2021/10/05 04:38:58;;;;;;;9.35;3.83;;;;;;;;;;5028692;28;20567;-46
2021/10/05 04:41:24;;;;;;;9.00;4.00;;;;;;;;;;5015186;28;20263;-46
2021/10/05 04:43:50;;;;;;;8.18;4.13;;;;;;;;;;5026229;28;20194;-46
2021/10/05 04:46:16;;;;;;;7.60;3.70;;;;;;;;;;5034866;28;20614;-46
2021/10/05 04:48:43;;;;;;;10.98;3.80;;;;;;;;;;5034625;28;20234;-46
2021/10/05 04:51:09;;;;;;;5.47;3.40;;;;;;;;;;5028778;28;20172;-46
2021/10/05 04:53:35;;;;;;;7.55;3.92;;;;;;;;;;5017227;28;20176;-46
2021/10/05 04:56:01;;;;;;;7.10;3.70;;;;;;;;;;5035034;28;20190;-46
2021/10/05 04:58:27;;;;;;;7.97;4.20;;;;;;;;;;5034121;28;20275;-46
2021/10/05 05:00:53;;;;;;;8.68;3.60;;;;;;;;;;5027501;28;20199;-46
2021/10/05 05:03:20;;;;;;;6.97;3.83;;;;;;;;;;5017509;28;20200;-46
2021/10/05 05:05:46;;;;;;;7.30;3.33;;;;;;;;;;5025734;28;20180;-46
2021/10/05 05:08:12;;;;;;;6.72;3.30;;;;;;;;;;5014013;28;20223;-46
2021/10/05 05:10:38;;;;;;;4.57;3.70;;;;;;;;;;5028644;28;20164;-47
2021/10/05 05:13:04;;;;;;;4.78;3.85;;;;;;;;;;5017803;28;20485;-46
2021/10/05 05:15:30;;;;;;;5.72;3.67;;;;;;;;;;5034413;28;20222;-46
2021/10/05 05:17:56;;;;;;;5.70;3.88;;;;;;;;;;5030135;28;20230;-46
2021/10/05 05:20:22;;;;;;;5.75;3.95;;;;;;;;;;5028953;28;20204;-46
2021/10/05 05:22:51;;;;;;;5.82;3.08;;;;;;;;;;5033657;28;20179;-47
2021/10/05 05:25:17;;;;;;;5.03;3.45;;;;;;;;;;5033920;28;20196;-47
2021/10/05 05:27:43;;;;;;;5.95;3.90;;;;;;;;;;5029827;28;20196;-46
2021/10/05 05:30:09;;;;;;;5.10;3.10;;;;;;;;;;5014378;28;20595;-46
2021/10/05 05:32:35;;;;;;;5.65;3.42;;;;;;;;;;5014182;28;20440;-46
2021/10/05 05:35:01;;;;;;;4.70;3.55;;;;;;;;;;5024371;28;20226;-46
2021/10/05 05:37:27;;;;;;;4.75;3.70;;;;;;;;;;5030904;28;20179;-46
2021/10/05 05:39:53;;;;;;;4.00;3.50;;;;;;;;;;5031834;28;20179;-46
2021/10/05 05:42:19;;;;;;;4.38;3.42;;;;;;;;;;5034405;28;20175;-47
2021/10/05 05:44:45;;;;;;;5.63;3.65;;;;;;;;;;5032309;28;20186;-46
2021/10/05 05:47:11;;;;;;;5.03;3.47;;;;;;;;;;5034605;28;20178;-46
2021/10/05 05:49:38;;;;;;;5.22;3.47;;;;;;;;;;5017933;28;20181;-46
2021/10/05 05:52:04;;;;;;;6.68;3.65;;;;;;;;;;5032149;28;20183;-46
2021/10/05 05:54:30;;;;;;;5.75;3.90;;;;;;;;;;5030169;28;20176;-45
2021/10/05 05:56:56;;;;;;;6.90;4.00;;;;;;;;;;5033368;28;20590;-46
2021/10/05 05:59:22;;;;;;;5.28;3.45;;;;;;;;;;5014418;28;20288;-45
2021/10/05 06:01:48;;;;;;;5.00;3.90;;;;;;;;;;5014652;28;20192;-46
2021/10/05 06:04:14;;;;;;;4.22;3.75;;;;;;;;;;5023059;28;20221;-46
2021/10/05 06:06:40;;;;;;;5.22;3.88;;;;;;;;;;5030882;28;20267;-46
2021/10/05 06:09:06;;;;;;;4.82;3.40;;;;;;;;;;5029063;28;20204;-46
2021/10/05 06:11:35;;;;;;;4.55;3.83;;;;;;;;;;5033987;28;20168;-46
2021/10/05 06:14:01;;;;;;;6.80;4.57;;;;;;;;;;5014946;28;20169;-47
2021/10/05 06:16:27;;;;;;;5.70;4.22;;;;;;;;;;5024600;28;20187;-46
2021/10/05 06:18:53;;;;;;;5.07;3.97;;;;;;;;;;5033365;28;20184;-47
2021/10/05 06:21:19;;;;;;;7.40;4.13;;;;;;;;;;5034126;28;20225;-46
2021/10/05 06:23:45;;;;;;;5.50;3.83;;;;;;;;;;5033383;28;20192;-46
2021/10/05 06:26:11;;;;;;;4.30;3.65;;;;;;;;;;5024290;28;20184;-46
2021/10/05 06:28:37;;;;;;;5.22;3.50;;;;;;;;;;5016015;28;20196;-46
2021/10/05 06:31:03;;;;;;;4.63;3.65;;;;;;;;;;5017856;28;20189;-47
2021/10/05 06:33:30;;;;;;;4.95;3.35;;;;;;;;;;5019361;28;20239;-46
2021/10/05 06:35:56;;;;;;;5.05;3.75;;;;;;;;;;5017595;28;20211;-46
2021/10/05 06:38:22;;;;;;;4.97;3.45;;;;;;;;;;5017785;28;20263;-46
2021/10/05 06:40:48;;;;;;;5.45;3.30;;;;;;;;;;5017706;28;20173;-46
2021/10/05 06:43:14;;;;;;;4.43;3.45;;;;;;;;;;5018222;28;20246;-46
2021/10/05 06:45:41;;;;;;;5.25;3.60;;;;;;;;;;5017407;28;20191;-46
2021/10/05 06:48:09;;;;;;;3.80;3.45;;;;;;;;;;5017564;28;20200;-46
2021/10/05 06:50:35;;;;;;;3.95;3.47;;;;;;;;;;5023725;28;20180;-46
2021/10/05 06:53:02;;;;;;;3.40;3.10;;;;;;;;;;5022890;28;20219;-46
2021/10/05 06:55:29;;;;;;;4.05;3.40;;;;;;;;;;5034582;28;20432;-46
2021/10/05 06:57:55;;;;;;;3.33;3.00;;;;;;;;;;5031916;28;20548;-46
2021/10/05 07:00:21;;;;;;;5.13;3.70;;;;;;;;;;5029948;28;20559;-46
2021/10/05 07:02:47;;;;;;;4.15;3.45;;;;;;;;;;5036156;28;20217;-45
2021/10/05 07:05:14;;;;;;;5.10;4.03;;;;;;;;;;5031680;28;20179;-45
2021/10/05 07:07:41;;;;;;;4.53;3.40;;;;;;;;;;5036922;28;20628;-45
2021/10/05 07:10:08;;;;;;;4.88;3.72;;;;;;;;;;5035136;28;20225;-46
2021/10/05 07:12:35;;;;;;;4.13;3.30;;;;;;;;;;5036777;28;20164;-46
2021/10/05 07:15:02;;;;;;;4.40;3.55;;;;;;;;;;5036019;28;20255;-46
2021/10/05 07:17:28;;;;;;;4.30;3.30;;;;;;;;;;5036798;28;20677;-46
2021/10/05 07:19:54;;;;;;;4.25;3.17;;;;;;;;;;5020662;28;20552;-46
2021/10/05 07:22:20;;;;;;;3.80;3.50;;;;;;;;;;5022304;28;20180;-46
2021/10/05 07:24:46;;;;;;;5.13;4.07;;;;;;;;;;5023001;28;20460;-46
2021/10/05 07:27:12;;;;;;;5.32;4.75;;;;;;;;;;5017738;28;20234;-46
2021/10/05 07:29:38;;;;;;;5.70;4.80;;;;;;;;;;5028313;28;20211;-46
2021/10/05 07:32:04;;;;;;;6.30;4.57;;;;;;;;;;5021900;28;20201;-47
2021/10/05 07:34:30;;;;;;;5.93;4.20;;;;;;;;;;5015280;28;20178;-46
2021/10/05 07:36:56;;;;;;;5.78;4.15;;;;;;;;;;5016689;28;20440;-46
2021/10/05 07:39:22;;;;;;;3.75;3.45;;;;;;;;;;5017027;28;20193;-45
2021/10/05 07:41:48;;;;;;;3.83;3.45;;;;;;;;;;5016310;28;20177;-45
2021/10/05 07:44:14;;;;;;;4.78;3.63;;;;;;;;;;5015015;28;20267;-45
2021/10/05 07:46:40;;;;;;;4.00;3.60;;;;;;;;;;5023247;28;20282;-46
2021/10/05 07:49:07;;;;;;;5.38;3.67;;;;;;;;;;5029142;28;20266;-46
2021/10/05 07:51:33;;;;;;;3.83;2.70;;;;;;;;;;5020477;28;20177;-45
2021/10/05 07:54:00;;;;;;;3.90;3.35;;;;;;;;;;5019748;28;20271;-46
2021/10/05 07:56:26;;;;;;;3.35;3.05;;;;;;;;;;5029096;28;20177;-46
2021/10/05 07:58:52;;;;;;;3.20;2.88;;;;;;;;;;5016184;28;20179;-46
2021/10/05 08:01:18;;;;;;;3.58;3.15;;;;;;;;;;5015914;28;20263;-46
2021/10/05 08:03:44;;;;;;;3.15;2.92;;;;;;;;;;5021021;28;20291;-45
2021/10/05 08:06:10;;;;;;;3.20;2.58;;;;;;;;;;5035535;28;20195;-46
2021/10/05 08:08:36;;;;;;;3.47;3.10;;;;;;;;;;5031776;28;20206;-46
2021/10/05 08:11:02;;;;;;;2.78;2.58;;;;;;;;;;5024636;28;20176;-46
2021/10/05 08:13:29;;;;;;;3.28;2.97;;;;;;;;;;5034593;28;20184;-47
2021/10/05 08:15:55;;;;;;;4.57;3.10;;;;;;;;;;5034747;28;20661;-46
2021/10/05 08:18:21;;;;;;;3.53;2.88;;;;;;;;;;5033781;28;20180;-46
2021/10/05 08:20:47;;;;;;;3.55;3.25;;;;;;;;;;5015874;28;20189;-46
2021/10/05 08:23:14;;;;;;;3.03;2.83;;;;;;;;;;5025384;28;20187;-46
2021/10/05 08:25:40;;;;;;;4.95;3.38;;;;;;;;;;5035293;28;20467;-46
2021/10/05 08:28:06;;;;;;;2.90;2.70;;;;;;;;;;5034557;28;20262;-46
2021/10/05 08:30:34;;;;;;;3.70;2.80;;;;;;;;;;5035016;28;20210;-46
2021/10/05 08:33:01;;;;;;;2.95;2.75;;;;;;;;;;5034905;28;20175;-46
2021/10/05 08:35:27;;;;;;;3.20;2.90;;;;;;;;;;5034243;28;20182;-46
2021/10/05 08:37:53;;;;;;;2.50;2.30;;;;;;;;;;5031043;28;20448;-46
2021/10/05 08:40:19;;;;;;;2.65;2.45;;;;;;;;;;5034158;28;20179;-46
2021/10/05 08:42:45;;;;;;;2.45;2.25;;;;;;;;;;5031791;28;20199;-46
2021/10/05 08:45:12;;;;;;;2.35;2.17;;;;;;;;;;5016076;28;20192;-46
2021/10/05 08:47:38;;;;;;;2.72;2.45;;;;;;;;;;5034990;28;20310;-46
2021/10/05 08:50:05;;;;;;;2.95;2.67;;;;;;;;;;5034496;28;20266;-46
2021/10/05 08:52:33;;;;;;;2.90;2.45;;;;;;;;;;5015171;28;20190;-47
2021/10/05 08:54:59;;;;;;;2.58;2.38;;;;;;;;;;5027019;28;20263;-46
2021/10/05 08:57:25;;;;;;;2.65;2.42;;;;;;;;;;5023643;28;20188;-46
2021/10/05 08:59:51;;;;;;;3.67;2.50;;;;;;;;;;5016221;28;20196;-46
2021/10/05 09:02:18;;;;;;;2.75;2.55;;;;;;;;;;5015001;28;20169;-46
2021/10/05 09:04:46;;;;;;;2.55;2.20;;;;;;;;;;5030958;28;20215;-46
2021/10/05 09:07:30;;;;;;;2.75;2.55;;;;;;;;;;5034747;28;20535;-46
2021/10/05 09:09:56;;;;;;;3.13;2.83;;;;;;;;;;5034244;28;20191;-46
2021/10/05 09:12:23;;;;;;;3.20;2.90;;;;;;;;;;5033956;28;20186;-46
2021/10/05 09:14:49;;;;;;;3.03;2.53;;;;;;;;;;5021817;28;20188;-46
2021/10/05 09:17:19;;;;;;;2.58;2.38;;;;;;;;;;5015027;28;20219;-47
2021/10/05 09:19:45;;;;;;;2.42;2.22;;;;;;;;;;5025150;28;20267;-46
2021/10/05 09:22:16;;;;;;;3.20;2.55;;;;;;;;;;5034413;28;20266;-47
2021/10/05 09:24:43;;;;;;;2.88;2.55;;;;;;;;;;5033204;28;20212;-47
2021/10/05 09:27:09;;;;;;;2.80;2.60;;;;;;;;;;5030660;28;20175;-46
2021/10/05 09:29:36;;;;;;;2.38;2.20;;;;;;;;;;5034427;28;20222;-46
2021/10/05 09:32:04;;;;;;;2.25;2.08;;;;;;;;;;5019519;28;20207;-46
2021/10/05 09:34:36;;;;;;;2.83;2.60;;;;;;;;;;5013915;28;20177;-46
2021/10/05 09:37:04;;;;;;;2.78;2.58;;;;;;;;;;5014941;28;20164;-46
2021/10/05 09:39:39;;;;;;;3.08;2.55;;;;;;;;;;5014906;28;20173;-47
2021/10/05 09:42:05;;;;;;;2.65;2.42;;;;;;;;;;5020668;28;20612;-46
2021/10/05 09:44:31;;;;;;;2.30;2.10;;;;;;;;;;5033808;28;20194;-46
2021/10/05 09:46:58;;;;;;;2.17;1.98;;;;;;;;;;5028585;28;20599;-46
2021/10/05 09:49:24;;;;;;;2.47;2.28;;;;;;;;;;5033792;28;20207;-46
2021/10/05 09:52:01;;;;;;;2.00;1.90;;;;;;;;;;5026159;28;20291;-46
2021/10/05 09:54:28;;;;;;;1.90;1.80;;;;;;;;;;5021212;28;20164;-46
2021/10/05 09:56:55;;;;;;;2.00;1.90;;;;;;;;;;5034304;28;20176;-46
2021/10/05 09:59:21;;;;;;;2.17;1.77;;;;;;;;;;5024317;28;20181;-46
2021/10/05 10:01:47;;;;;;;1.90;1.80;;;;;;;;;;5014304;28;20872;-47
2021/10/05 10:04:13;;;;;;;1.88;1.77;;;;;;;;;;5026274;28;20259;-47
2021/10/05 10:06:39;;;;;;;2.28;2.08;;;;;;;;;;5037397;28;20187;-47
2021/10/05 10:09:06;;;;;;;2.72;2.00;;;;;;;;;;5038069;28;20212;-46
2021/10/05 10:11:34;;;;;;;1.85;1.75;;;;;;;;;;5038250;28;20164;-46
2021/10/05 10:14:00;;;;;;;1.92;1.80;;;;;;;;;;5031852;28;20172;-46
2021/10/05 10:16:26;;;;;;;2.88;1.70;;;;;;;;;;5019323;28;20210;-46
2021/10/05 10:18:54;;;;;;;2.15;1.95;;;;;;;;;;5018580;28;20180;-46
2021/10/05 10:21:25;;;;;;;1.80;1.70;;;;;;;;;;5018324;28;20180;-46
2021/10/05 10:24:03;;;;;;;2.70;1.40;;;;;;;;;;5017728;28;20181;-46
2021/10/05 10:26:29;;;;;;;2.45;1.38;;;;;;;;;;5018970;28;20784;-46
2021/10/05 10:28:59;;;;;;;1.50;1.40;;;;;;;;;;5017667;28;20216;-46
2021/10/05 10:31:33;;;;;;;1.50;1.40;;;;;;;;;;5017896;28;20442;-46
2021/10/05 10:33:59;;;;;;;1.55;1.45;;;;;;;;;;5016928;28;20176;-46
2021/10/05 10:36:30;;;;;;;1.45;1.35;;;;;;;;;;5032447;28;20188;-46
2021/10/05 10:39:03;;;;;;;1.42;1.33;;;;;;;;;;5036441;28;20180;-46
2021/10/05 10:41:29;;;;;;;1.20;1.20;;;;;;;;;;5025723;28;20191;-46
2021/10/05 10:44:02;;;;;;;1.30;1.20;;;;;;;;;;5023064;28;20187;-46
2021/10/05 10:46:30;;;;;;;1.50;1.40;;;;;;;;;;5037454;28;20416;-46
2021/10/05 10:48:57;;;;;;;1.42;1.33;;;;;;;;;;5036825;28;20217;-46
2021/10/05 10:51:27;;;;;;;1.27;1.17;;;;;;;;;;5035394;28;20259;-46
2021/10/05 10:53:54;;;;;;;1.48;1.38;;;;;;;;;;5032994;28;20172;-46
2021/10/05 10:56:37;;;;;;;1.42;1.20;;;;;;;;;;5037133;28;20168;-46
2021/10/05 10:59:04;;;;;;;1.30;1.20;;;;;;;;;;5036451;28;20180;-46
2021/10/05 11:01:52;;;;;;;1.48;1.38;;;;;;;;;;5036983;28;20219;-46
2021/10/05 11:04:18;;;;;;;1.50;1.40;;;;;;;;;;5030561;28;20563;-46
2021/10/05 11:06:46;;;;;;;1.40;1.30;;;;;;;;;;5023345;28;20195;-46
2021/10/05 11:09:12;;;;;;;1.60;1.50;;;;;;;;;;5017094;28;20212;-46
2021/10/05 11:11:38;;;;;;;1.52;1.30;;;;;;;;;;5018276;28;20231;-48
2021/10/05 11:14:06;;;;;;;1.10;1.10;;;;;;;;;;5023235;28;20547;-47
2021/10/05 11:16:33;;;;;;;1.40;1.30;;;;;;;;;;5036412;28;20436;-46
2021/10/05 11:19:06;;;;;;;1.40;1.30;;;;;;;;;;5036219;28;20560;-46
2021/10/05 11:21:33;;;;;;;1.58;1.45;;;;;;;;;;5036732;28;20175;-46
2021/10/05 11:23:59;;;;;;;1.88;1.40;;;;;;;;;;5029597;28;20246;-46
2021/10/05 11:26:58;;;;;;;1.48;1.38;;;;;;;;;;5016491;28;20177;-47
2021/10/05 11:29:25;;;;;;;1.10;1.10;;;;;;;;;;5015583;28;20298;-47
2021/10/05 11:31:53;;;;;;;2.05;1.17;;;;;;;;;;5016924;28;20206;-46
2021/10/05 11:34:19;;;;;;;1.30;1.20;;;;;;;;;;5015931;28;20552;-46
2021/10/05 11:36:46;;;;;;;1.25;1.13;;;;;;;;;;5016591;28;20207;-46
2021/10/05 11:39:18;;;;;;;3.22;1.80;;;;;;;;;;5016661;28;20181;-46
2021/10/05 11:41:45;;;;;;;2.03;1.70;;;;;;;;;;5033257;28;20176;-46
2021/10/05 11:44:18;;;;;;;1.45;1.35;;;;;;;;;;5035477;28;20180;-47
2021/10/05 11:46:58;;;;;;;1.70;1.60;;;;;;;;;;5036351;28;20192;-46
2021/10/05 11:49:25;;;;;;;1.40;1.30;;;;;;;;;;5035158;28;20223;-46
2021/10/05 11:51:55;;;;;;;1.40;1.30;;;;;;;;;;5034415;28;20259;-46
2021/10/05 11:54:26;;;;;;;1.95;1.30;;;;;;;;;;5027290;28;20172;-46
2021/10/05 11:56:52;;;;;;;3.00;1.38;;;;;;;;;;5030331;28;20184;-47
2021/10/05 11:59:32;;;;;;;1.88;1.60;;;;;;;;;;5035110;28;20176;-46
2021/10/05 12:02:08;;;;;;;1.05;1.00;;;;;;;;;;5035674;28;20175;-46
2021/10/05 12:04:35;;;;;;;1.58;1.48;;;;;;;;;;5033863;28;20171;-46
2021/10/05 12:07:11;;;;;;;1.50;1.40;;;;;;;;;;5019265;28;20460;-46
2021/10/05 12:09:38;;;;;;;1.25;1.15;;;;;;;;;;5028608;28;20502;-46
2021/10/05 12:12:12;;;;;;;1.50;1.35;;;;;;;;;;5034107;28;20226;-46
2021/10/05 12:14:39;;;;;;;1.45;1.27;;;;;;;;;;5034869;28;20176;-46
2021/10/05 12:17:12;;;;;;;1.20;1.10;;;;;;;;;;5035327;28;20503;-46
2021/10/05 12:19:42;;;;;;;0.90;0.90;;;;;;;;;;5031052;28;20176;-46
2021/10/05 12:22:09;;;;;;;0.90;0.90;;;;;;;;;;5026928;28;20191;-47
2021/10/05 12:24:44;;;;;;;1.30;1.20;;;;;;;;;;5019320;28;20211;-47
2021/10/05 12:27:18;;;;;;;1.25;1.15;;;;;;;;;;5033220;28;20190;-47
2021/10/05 12:29:48;;;;;;;1.40;1.30;;;;;;;;;;5029196;28;20207;-47
2021/10/05 12:32:14;;;;;;;1.50;1.40;;;;;;;;;;5034492;28;20266;-46
2021/10/05 12:34:40;;;;;;;2.13;1.50;;;;;;;;;;5028816;28;20263;-47
2021/10/05 12:37:09;;;;;;;1.55;1.45;;;;;;;;;;5035010;28;20516;-47
2021/10/05 12:39:35;;;;;;;1.60;1.50;;;;;;;;;;5015651;28;20200;-47
2021/10/05 12:42:03;;;;;;;1.33;1.20;;;;;;;;;;5015107;28;20177;-47
2021/10/05 12:44:31;;;;;;;1.40;1.30;;;;;;;;;;5019847;28;20191;-47
2021/10/05 12:46:59;;;;;;;1.55;1.40;;;;;;;;;;5021055;28;20199;-46
2021/10/05 12:49:25;;;;;;;2.80;1.63;;;;;;;;;;5015706;28;20212;-47
2021/10/05 12:51:52;;;;;;;1.70;1.60;;;;;;;;;;5025888;28;20168;-46
2021/10/05 12:54:18;;;;;;;2.03;1.80;;;;;;;;;;5025689;28;20172;-46
2021/10/05 12:56:45;;;;;;;1.65;1.50;;;;;;;;;;5020478;28;20179;-46
2021/10/05 12:59:11;;;;;;;1.95;1.73;;;;;;;;;;5015263;28;20255;-47
2021/10/05 13:01:38;;;;;;;1.85;1.50;;;;;;;;;;5031124;28;20188;-46
2021/10/05 13:04:08;;;;;;;2.20;1.70;;;;;;;;;;5034023;28;20187;-47
2021/10/05 13:06:35;;;;;;;2.75;1.92;;;;;;;;;;5034629;28;20176;-46
2021/10/05 13:09:03;;;;;;;2.42;2.00;;;;;;;;;;5027531;28;20196;-46
2021/10/05 13:11:29;;;;;;;1.45;1.35;;;;;;;;;;5018196;28;20544;-46
2021/10/05 13:13:55;;;;;;;2.80;1.90;;;;;;;;;;5017787;28;20182;-47
2021/10/05 13:16:21;;;;;;;3.30;2.03;;;;;;;;;;5034585;28;20164;-47
2021/10/05 13:18:47;;;;;;;3.17;2.15;;;;;;;;;;5021649;28;20230;-47
2021/10/05 13:21:13;;;;;;;2.67;2.05;;;;;;;;;;5014940;28;20176;-46
2021/10/05 13:23:40;;;;;;;2.20;2.00;;;;;;;;;;5014171;28;20496;-46
2021/10/05 13:26:06;;;;;;;2.17;1.98;;;;;;;;;;5014679;28;20503;-46
2021/10/05 13:28:32;;;;;;;2.95;2.10;;;;;;;;;;5015823;28;20200;-46
2021/10/05 13:30:58;;;;;;;2.95;2.22;;;;;;;;;;5025870;28;20255;-47
2021/10/05 13:33:24;;;;;;;2.85;2.30;;;;;;;;;;5012938;28;20183;-47
2021/10/05 13:35:50;;;;;;;3.67;1.95;;;;;;;;;;5016921;28;20199;-47
2021/10/05 13:38:18;;;;;;;2.75;2.15;;;;;;;;;;5028654;28;20188;-47
2021/10/05 13:40:44;;;;;;;3.50;2.05;;;;;;;;;;5037774;28;20184;-46
2021/10/05 13:43:11;;;;;;;2.47;2.17;;;;;;;;;;5036474;28;20215;-47
2021/10/05 13:45:37;;;;;;;2.10;1.90;;;;;;;;;;5038608;28;20168;-46
2021/10/05 13:48:03;;;;;;;2.80;2.60;;;;;;;;;;5038150;28;20203;-46
2021/10/05 13:50:29;;;;;;;4.22;2.30;;;;;;;;;;5035228;28;20625;-46
2021/10/05 13:52:55;;;;;;;4.43;2.80;;;;;;;;;;5037770;28;20369;-46
2021/10/05 13:55:21;;;;;;;5.28;2.92;;;;;;;;;;5034085;28;20452;-46
2021/10/05 13:57:47;;;;;;;4.95;2.67;;;;;;;;;;5036810;28;20175;-47
2021/10/05 14:00:14;;;;;;;3.25;2.60;;;;;;;;;;5032189;28;20176;-47
2021/10/05 14:02:40;;;;;;;4.20;2.70;;;;;;;;;;5018772;28;20181;-46
2021/10/05 14:05:06;;;;;;;3.13;2.22;;;;;;;;;;5036078;28;20187;-46
2021/10/05 14:07:32;;;;;;;2.88;2.60;;;;;;;;;;5026704;28;20184;-46
2021/10/05 14:09:58;;;;;;;2.35;2.08;;;;;;;;;;5032826;28;20184;-47
2021/10/05 14:12:24;;;;;;;3.00;2.70;;;;;;;;;;5038336;28;20194;-47
2021/10/05 14:14:50;;;;;;;3.78;2.20;;;;;;;;;;5037192;28;20480;-46
2021/10/05 14:17:18;;;;;;;4.15;2.45;;;;;;;;;;5037981;28;20254;-47
2021/10/05 14:19:44;;;;;;;2.60;2.20;;;;;;;;;;5037110;28;20172;-46
2021/10/05 14:22:10;;;;;;;4.53;2.35;;;;;;;;;;5036646;28;20186;-47
2021/10/05 14:24:36;;;;;;;2.53;2.22;;;;;;;;;;5019776;28;20184;-47
2021/10/05 14:27:02;;;;;;;4.03;2.35;;;;;;;;;;5018916;28;20195;-46
2021/10/05 14:29:28;;;;;;;4.10;2.20;;;;;;;;;;5029099;28;20207;-46
2021/10/05 14:31:54;;;;;;;2.65;2.00;;;;;;;;;;5018052;28;20591;-46
2021/10/05 14:34:20;;;;;;;2.55;2.22;;;;;;;;;;5024071;28;20180;-47
2021/10/05 14:36:47;;;;;;;3.42;2.22;;;;;;;;;;5017782;28;20172;-46
2021/10/05 14:39:13;;;;;;;3.63;2.47;;;;;;;;;;5018587;28;20195;-46
2021/10/05 14:41:39;;;;;;;2.60;2.40;;;;;;;;;;5037695;28;20199;-46